createdAt,value
2023-04-21T00:01:33.132Z,10.61
2023-04-21T00:04:05.776Z,10.61
2023-04-21T00:06:38.022Z,10.58
2023-04-21T00:09:11.567Z,10.56
2023-04-21T00:11:44.060Z,10.51
2023-04-21T00:14:16.329Z,10.48
2023-04-21T00:16:53.623Z,10.43
2023-04-21T00:19:25.986Z,10.43
2023-04-21T00:22:01.515Z,10.39
2023-04-21T00:24:34.216Z,10.36
2023-04-21T00:27:06.638Z,10.29
2023-04-21T00:29:39.024Z,10.26
2023-04-21T00:32:11.529Z,10.22
2023-04-21T00:34:44.327Z,10.16
2023-04-21T00:37:17.848Z,10.13
2023-04-21T00:39:50.455Z,10.06
2023-04-21T00:42:23.115Z,10.03
2023-04-21T00:44:55.671Z,10.01
2023-04-21T00:47:29.278Z,9.96
2023-04-21T00:50:04.301Z,9.94
2023-04-21T00:52:37.284Z,9.88
2023-04-21T00:55:11.503Z,9.82
2023-04-21T00:57:42.569Z,9.75
2023-04-21T01:00:16.972Z,9.69
2023-04-21T01:02:49.679Z,9.67
2023-04-21T01:05:22.423Z,9.60
2023-04-21T01:07:55.215Z,9.55
2023-04-21T01:10:27.392Z,9.47
2023-04-21T01:12:59.764Z,9.39
2023-04-21T01:15:32.207Z,9.34
2023-04-21T01:18:04.748Z,9.27
2023-04-21T01:20:39.172Z,9.23
2023-04-21T01:23:12.015Z,9.18
2023-04-21T01:25:44.567Z,9.11
2023-04-21T01:28:16.791Z,9.04
2023-04-21T01:30:49.310Z,8.95
2023-04-21T01:33:22.290Z,8.88
2023-04-21T01:35:55.738Z,8.77
2023-04-21T01:38:31.183Z,8.71
2023-04-21T01:41:04.652Z,8.64
2023-04-21T01:43:37.415Z,8.57
2023-04-21T01:46:10.149Z,8.51
2023-04-21T01:48:43.426Z,8.44
2023-04-21T01:51:16.178Z,8.41
2023-04-21T01:53:51.903Z,8.36
2023-04-21T01:56:24.327Z,8.32
2023-04-21T01:58:56.791Z,8.29
2023-04-21T02:01:29.907Z,8.26
2023-04-21T02:04:02.973Z,8.26
2023-04-21T02:06:36.056Z,8.22
2023-04-21T02:09:09.461Z,8.21
2023-04-21T02:11:42.118Z,8.18
2023-04-21T02:14:14.542Z,8.13
2023-04-21T02:16:47.140Z,8.08
2023-04-21T02:19:19.774Z,8.04
2023-04-21T02:21:53.061Z,7.97
2023-04-21T02:24:27.300Z,7.94
2023-04-21T02:26:59.966Z,7.85
2023-04-21T02:29:33.586Z,7.81
2023-04-21T02:34:43.534Z,7.66
2023-04-21T02:37:15.913Z,7.60
2023-04-21T02:39:48.235Z,7.57
2023-04-21T02:42:20.556Z,7.53
2023-04-21T02:44:53.944Z,7.45
2023-04-21T02:47:26.285Z,7.40
2023-04-21T02:49:58.688Z,7.35
2023-04-21T02:52:30.884Z,7.29
2023-04-21T02:55:03.680Z,7.25
2023-04-21T02:57:36.356Z,7.19
2023-04-21T03:00:11.996Z,7.14
2023-04-21T03:02:44.869Z,7.08
2023-04-21T03:05:17.839Z,7.05
2023-04-21T03:07:50.111Z,7.00
2023-04-21T03:10:22.286Z,6.97
2023-04-21T03:12:56.412Z,6.91
2023-04-21T03:15:29.947Z,6.84
2023-04-21T03:18:03.106Z,6.80
2023-04-21T03:20:36.196Z,6.80
2023-04-21T03:23:08.750Z,6.73
2023-04-21T03:25:41.412Z,6.70
2023-04-21T03:28:13.810Z,6.65
2023-04-21T03:30:46.078Z,6.63
2023-04-21T03:33:18.386Z,6.57
2023-04-21T03:35:50.460Z,6.55
2023-04-21T03:38:22.768Z,6.52
2023-04-21T03:40:55.002Z,6.50
2023-04-21T03:43:27.249Z,6.50
2023-04-21T03:46:04.029Z,6.46
2023-04-21T03:48:36.217Z,6.45
2023-04-21T03:51:08.691Z,6.45
2023-04-21T03:53:40.996Z,6.45
2023-04-21T03:56:13.291Z,6.43
2023-04-21T03:58:45.518Z,6.49
2023-04-21T04:01:20.301Z,6.52
2023-04-21T04:03:54.678Z,6.59
2023-04-21T04:06:28.610Z,6.61
2023-04-21T04:09:02.709Z,6.70
2023-04-21T04:11:35.933Z,6.73
2023-04-21T04:14:09.046Z,6.83
2023-04-21T04:16:43.017Z,6.93
2023-04-21T04:19:16.502Z,7.02
2023-04-21T04:21:49.377Z,7.16
2023-04-21T04:24:21.729Z,7.32
2023-04-21T04:26:55.095Z,7.87
2023-04-21T04:29:27.465Z,8.90
2023-04-21T04:32:01.951Z,9.39
2023-04-21T04:34:37.753Z,9.40
2023-04-21T04:37:11.398Z,9.37
2023-04-21T04:39:43.911Z,9.34
2023-04-21T04:42:17.552Z,9.75
2023-04-21T04:44:54.171Z,11.10
2023-04-21T04:47:27.514Z,12.79
2023-04-21T04:49:59.785Z,14.50
2023-04-21T04:52:33.562Z,16.12
2023-04-21T04:55:06.246Z,17.52
2023-04-21T04:57:38.401Z,18.77
2023-04-21T05:00:14.642Z,19.90
2023-04-21T05:02:47.154Z,20.97
2023-04-21T05:05:20.536Z,21.87
2023-04-21T05:07:52.722Z,22.14
2023-04-21T05:10:25.026Z,21.81
2023-04-21T05:12:57.063Z,20.97
2023-04-21T05:15:29.232Z,19.99
2023-04-21T05:18:04.008Z,19.86
2023-04-21T05:20:36.392Z,20.72
2023-04-21T05:23:08.793Z,21.94
2023-04-21T05:25:41.036Z,23.13
2023-04-21T05:28:13.256Z,24.12
2023-04-21T05:30:45.508Z,24.65
2023-04-21T05:33:19.169Z,24.96
2023-04-21T05:35:51.433Z,24.77
2023-04-21T05:38:23.645Z,24.47
2023-04-21T05:40:57.437Z,23.79
2023-04-21T05:43:29.714Z,23.31
2023-04-21T05:46:02.274Z,22.48
2023-04-21T05:48:37.530Z,21.94
2023-04-21T05:51:27.318Z,21.80
2023-04-21T05:53:59.482Z,21.84
2023-04-21T05:56:33.957Z,22.52
2023-04-21T05:59:07.138Z,23.39
2023-04-21T06:01:39.993Z,24.32
2023-04-21T06:04:12.660Z,24.32
2023-04-21T06:06:45.612Z,23.63
2023-04-21T06:09:17.807Z,22.65
2023-04-21T06:11:50.692Z,21.67
2023-04-21T06:14:22.907Z,20.70
2023-04-21T06:16:55.006Z,19.90
2023-04-21T06:19:27.183Z,19.13
2023-04-21T06:22:00.639Z,18.44
2023-04-21T06:24:36.073Z,17.92
2023-04-21T06:27:13.546Z,17.55
2023-04-21T06:29:46.035Z,17.30
2023-04-21T06:32:19.342Z,17.37
2023-04-21T06:34:51.601Z,17.30
2023-04-21T06:37:26.898Z,17.13
2023-04-21T06:39:59.152Z,17.30
2023-04-21T06:42:32.067Z,18.32
2023-04-21T06:45:04.277Z,19.58
2023-04-21T06:47:36.430Z,20.93
2023-04-21T06:50:10.370Z,22.17
2023-04-21T06:52:42.695Z,23.09
2023-04-21T06:55:15.447Z,23.50
2023-04-21T06:57:47.595Z,23.72
2023-04-21T07:00:20.463Z,23.89
2023-04-21T07:02:52.800Z,23.96
2023-04-21T07:05:25.276Z,24.34
2023-04-21T07:08:00.061Z,24.12
2023-04-21T07:10:34.845Z,23.96
2023-04-21T07:13:08.794Z,24.20
2023-04-21T07:15:42.344Z,24.77
2023-04-21T07:18:14.802Z,25.09
2023-04-21T07:20:47.583Z,25.25
2023-04-21T07:23:19.944Z,25.38
2023-04-21T07:25:52.251Z,24.56
2023-04-21T07:28:24.568Z,23.92
2023-04-21T07:30:57.040Z,23.69
2023-04-21T07:33:29.270Z,23.35
2023-04-21T07:36:03.490Z,22.65
2023-04-21T07:38:38.619Z,21.89
2023-04-21T07:41:10.810Z,21.08
2023-04-21T07:43:43.531Z,20.55
2023-04-21T07:46:16.071Z,20.55
2023-04-21T07:48:50.712Z,20.73
2023-04-21T07:51:23.156Z,20.77
2023-04-21T07:53:56.098Z,21.13
2023-04-21T07:56:28.771Z,21.10
2023-04-21T07:59:03.910Z,21.03
2023-04-21T08:01:40.961Z,21.49
2023-04-21T08:04:13.575Z,22.24
2023-04-21T08:06:46.136Z,22.91
2023-04-21T08:09:19.117Z,23.59
2023-04-21T08:11:51.991Z,23.76
2023-04-21T08:14:24.342Z,23.58
2023-04-21T08:16:57.382Z,23.28
2023-04-21T08:19:33.120Z,23.07
2023-04-21T08:22:11.084Z,22.89
2023-04-21T08:24:43.314Z,22.75
2023-04-21T08:27:17.680Z,22.49
2023-04-21T08:29:50.812Z,22.20
2023-04-21T08:32:24.657Z,22.14
2023-04-21T08:34:57.612Z,22.21
2023-04-21T08:37:30.542Z,22.59
2023-04-21T08:40:02.915Z,22.97
2023-04-21T08:42:37.257Z,23.41
2023-04-21T08:45:11.622Z,23.92
2023-04-21T08:47:44.971Z,24.54
2023-04-21T08:50:17.156Z,25.22
2023-04-21T08:52:49.291Z,25.76
2023-04-21T08:55:22.314Z,26.10
2023-04-21T08:57:54.586Z,26.17
2023-04-21T09:00:28.260Z,25.97
2023-04-21T09:03:04.234Z,25.77
2023-04-21T09:05:42.826Z,25.54
2023-04-21T09:08:17.441Z,25.31
2023-04-21T09:10:53.982Z,25.21
2023-04-21T09:13:34.161Z,25.13
2023-04-21T09:16:16.477Z,24.86
2023-04-21T09:18:49.511Z,24.63
2023-04-21T09:21:23.403Z,24.44
2023-04-21T09:23:56.984Z,24.22
2023-04-21T09:26:27.923Z,24.07
2023-04-21T09:29:00.924Z,23.90
2023-04-21T09:31:38.363Z,23.86
2023-04-21T09:34:21.668Z,23.90
2023-04-21T09:37:02.548Z,23.93
2023-04-21T09:39:49.312Z,23.96
2023-04-21T09:42:32.591Z,24.03
2023-04-21T09:47:43.473Z,23.99
2023-04-21T09:50:17.010Z,23.89
2023-04-21T09:52:54.010Z,23.93
2023-04-21T09:55:33.660Z,23.75
2023-04-21T09:58:07.402Z,23.66
2023-04-21T10:00:42.656Z,23.63
2023-04-21T10:03:16.002Z,23.60
2023-04-21T10:05:48.845Z,23.59
2023-04-21T10:08:24.613Z,23.52
2023-04-21T10:10:59.781Z,23.48
2023-04-21T10:13:33.450Z,23.49
2023-04-21T10:16:10.723Z,23.59
2023-04-21T10:18:46.435Z,23.75
2023-04-21T10:21:24.364Z,23.69
2023-04-21T10:23:59.373Z,23.76
2023-04-21T10:26:37.584Z,23.66
2023-04-21T10:29:10.774Z,23.63
2023-04-21T10:31:54.415Z,23.63
2023-04-21T10:34:37.937Z,23.73
2023-04-21T10:37:34.628Z,23.69
2023-04-21T10:40:11.137Z,23.56
2023-04-21T10:42:44.201Z,23.59
2023-04-21T10:45:16.795Z,23.67
2023-04-21T10:47:51.681Z,23.69
2023-04-21T10:50:27.119Z,23.56
2023-04-21T10:53:12.069Z,23.52
2023-04-21T10:55:53.098Z,23.55
2023-04-21T10:58:27.118Z,23.49
2023-04-21T11:01:01.144Z,23.38
2023-04-21T11:03:41.383Z,23.31
2023-04-21T11:06:20.630Z,23.32
2023-04-21T11:08:59.757Z,23.59
2023-04-21T11:11:34.150Z,23.38
2023-04-21T11:14:07.782Z,23.15
2023-04-21T11:16:45.295Z,23.04
2023-04-21T11:19:20.963Z,22.95
2023-04-21T11:21:54.551Z,23.01
2023-04-21T11:24:25.668Z,22.98
2023-04-21T11:26:58.584Z,23.03
2023-04-21T11:29:34.849Z,23.13
2023-04-21T11:32:09.543Z,23.17
2023-04-21T11:34:42.344Z,23.14
2023-04-21T11:37:18.727Z,23.27
2023-04-21T11:40:00.399Z,23.31
2023-04-21T11:42:33.488Z,23.27
2023-04-21T11:45:06.491Z,23.31
2023-04-21T11:47:40.255Z,23.28
2023-04-21T11:50:13.137Z,23.21
2023-04-21T11:52:45.994Z,23.31
2023-04-21T11:55:20.267Z,23.25
2023-04-21T11:57:53.108Z,23.14
2023-04-21T12:00:26.118Z,23.03
2023-04-21T12:02:58.886Z,23.00
2023-04-21T12:05:38.219Z,22.91
2023-04-21T12:08:16.819Z,22.72
2023-04-21T12:10:50.407Z,22.67
2023-04-21T12:13:26.372Z,22.56
2023-04-21T12:15:57.382Z,22.55
2023-04-21T12:18:36.635Z,22.62
2023-04-21T12:21:09.520Z,22.58
2023-04-21T12:23:42.150Z,22.49
2023-04-21T12:26:15.311Z,22.52
2023-04-21T12:28:47.947Z,22.56
2023-04-21T12:31:22.211Z,22.63
2023-04-21T12:33:54.881Z,22.69
2023-04-21T12:36:27.951Z,22.76
2023-04-21T12:39:00.152Z,22.55
2023-04-21T12:41:33.032Z,22.42
2023-04-21T12:44:06.082Z,22.31
2023-04-21T12:46:40.085Z,22.15
2023-04-21T12:49:12.732Z,22.13
2023-04-21T12:51:45.582Z,22.05
2023-04-21T12:54:18.019Z,21.99
2023-04-21T12:56:50.631Z,21.93
2023-04-21T12:59:23.176Z,21.92
2023-04-21T13:01:55.784Z,21.84
2023-04-21T13:04:28.530Z,21.72
2023-04-21T13:07:01.012Z,21.63
2023-04-21T13:09:35.951Z,21.55
2023-04-21T13:12:08.631Z,21.48
2023-04-21T13:14:40.992Z,21.46
2023-04-21T13:17:13.606Z,21.44
2023-04-21T13:19:46.424Z,21.42
2023-04-21T13:22:18.973Z,21.42
2023-04-21T13:24:51.916Z,21.34
2023-04-21T13:27:24.409Z,21.28
2023-04-21T13:29:56.909Z,21.37
2023-04-21T13:32:29.402Z,21.35
2023-04-21T13:35:01.889Z,21.24
2023-04-21T13:37:34.827Z,21.17
2023-04-21T13:40:10.417Z,21.07
2023-04-21T13:42:42.808Z,21.10
2023-04-21T13:45:16.273Z,21.05
2023-04-21T13:47:48.624Z,20.91
2023-04-21T13:50:21.427Z,20.80
2023-04-21T13:52:54.366Z,20.72
2023-04-21T13:55:27.581Z,20.72
2023-04-21T13:58:01.934Z,20.66
2023-04-21T14:00:34.410Z,20.59
2023-04-21T14:03:06.934Z,20.56
2023-04-21T14:05:40.280Z,20.55
2023-04-21T14:08:12.815Z,20.53
2023-04-21T14:10:45.416Z,20.48
2023-04-21T14:15:56.001Z,20.45
2023-04-21T14:18:28.490Z,20.46
2023-04-21T14:21:00.991Z,20.52
2023-04-21T14:23:36.002Z,20.53
2023-04-21T14:26:08.822Z,20.48
2023-04-21T14:28:41.202Z,20.45
2023-04-21T14:31:13.590Z,20.39
2023-04-21T14:33:49.195Z,20.36
2023-04-21T14:36:21.837Z,20.31
2023-04-21T14:38:55.263Z,20.31
2023-04-21T14:41:27.578Z,20.25
2023-04-21T14:44:00.848Z,20.18
2023-04-21T14:46:34.630Z,20.10
2023-04-21T14:49:06.131Z,20.01
2023-04-21T14:51:41.409Z,19.99
2023-04-21T14:54:16.020Z,19.96
2023-04-21T14:56:48.523Z,19.91
2023-04-21T14:59:20.798Z,19.88
2023-04-21T15:01:53.358Z,19.88
2023-04-21T15:04:26.527Z,19.87
2023-04-21T15:06:59.223Z,19.77
2023-04-21T15:09:32.478Z,19.70
2023-04-21T15:12:05.015Z,19.70
2023-04-21T15:14:38.403Z,19.70
2023-04-21T15:17:11.037Z,19.63
2023-04-21T15:19:43.795Z,19.62
2023-04-21T15:22:16.353Z,19.62
2023-04-21T15:24:48.843Z,19.53
2023-04-21T15:27:21.974Z,19.52
2023-04-21T15:29:54.664Z,19.52
2023-04-21T15:32:27.082Z,19.53
2023-04-21T15:35:01.289Z,19.46
2023-04-21T15:37:38.134Z,19.42
2023-04-21T15:40:12.966Z,19.37
2023-04-21T15:42:45.640Z,19.35
2023-04-21T15:45:18.667Z,19.32
2023-04-21T15:47:51.081Z,19.23
2023-04-21T15:50:23.635Z,19.14
2023-04-21T15:52:55.993Z,19.05
2023-04-21T15:55:29.498Z,18.97
2023-04-21T15:58:01.906Z,18.88
2023-04-21T16:00:34.852Z,18.79
2023-04-21T16:03:07.961Z,18.70
2023-04-21T16:05:40.659Z,18.65
2023-04-21T16:08:13.312Z,18.62
2023-04-21T16:10:46.185Z,18.55
2023-04-21T16:13:19.090Z,18.49
2023-04-21T16:15:51.452Z,18.44
2023-04-21T16:18:24.129Z,18.36
2023-04-21T16:20:56.862Z,18.29
2023-04-21T16:23:29.203Z,18.24
2023-04-21T16:26:02.199Z,18.21
2023-04-21T16:28:37.156Z,18.15
2023-04-21T16:31:10.024Z,18.08
2023-04-21T16:33:44.612Z,18.04
2023-04-21T16:36:21.684Z,17.99
2023-04-21T16:38:55.294Z,17.92
2023-04-21T16:41:27.884Z,17.85
2023-04-21T16:44:00.361Z,17.77
2023-04-21T16:46:32.963Z,17.73
2023-04-21T16:49:09.237Z,17.64
2023-04-21T16:51:45.448Z,17.58
2023-04-21T16:54:17.983Z,17.51
2023-04-21T16:56:51.285Z,17.42
2023-04-21T16:59:24.856Z,17.32
2023-04-21T17:04:46.745Z,17.21
2023-04-21T17:07:22.399Z,17.11
2023-04-21T17:09:55.012Z,17.03
2023-04-21T17:12:28.251Z,16.95
2023-04-21T17:15:01.053Z,16.86
2023-04-21T17:17:42.606Z,16.80
2023-04-21T17:20:17.093Z,16.72
2023-04-21T17:22:52.899Z,16.61
2023-04-21T17:25:26.398Z,16.55
2023-04-21T17:27:59.202Z,16.44
2023-04-21T17:30:31.834Z,16.41
2023-04-21T17:33:16.269Z,16.31
2023-04-21T17:36:02.321Z,16.24
2023-04-21T17:38:38.685Z,16.16
2023-04-21T17:41:11.998Z,16.07
2023-04-21T17:43:44.647Z,15.98
2023-04-21T17:46:18.101Z,15.90
2023-04-21T17:48:53.825Z,15.82
2023-04-21T17:51:29.864Z,15.70
2023-04-21T17:54:03.576Z,15.58
2023-04-21T17:56:39.044Z,15.44
2023-04-21T17:59:11.926Z,15.33
2023-04-21T18:01:44.965Z,15.21
2023-04-21T18:04:18.374Z,15.10
2023-04-21T18:06:52.068Z,14.96
2023-04-21T18:09:26.751Z,14.86
2023-04-21T18:12:00.454Z,14.75
2023-04-21T18:14:31.947Z,14.62
2023-04-21T18:17:06.204Z,14.48
2023-04-21T18:19:39.081Z,14.34
2023-04-21T18:22:12.330Z,14.24
2023-04-21T18:24:47.329Z,14.06
2023-04-21T18:27:20.033Z,13.93
2023-04-21T18:29:52.563Z,13.76
2023-04-21T18:32:25.588Z,13.65
2023-04-21T18:34:58.400Z,13.51
2023-04-21T18:37:31.291Z,13.37
2023-04-21T18:40:06.130Z,13.23
2023-04-21T18:42:37.504Z,13.10
2023-04-21T18:45:13.235Z,13.00
2023-04-21T18:47:47.176Z,12.89
2023-04-21T18:50:20.302Z,12.74
2023-04-21T18:52:58.480Z,12.59
2023-04-21T18:55:31.195Z,12.50
2023-04-21T18:58:04.470Z,12.34
2023-04-21T19:00:39.921Z,12.24
2023-04-21T19:03:13.289Z,12.10
2023-04-21T19:05:46.045Z,12.00
2023-04-21T19:08:27.062Z,11.92
2023-04-21T19:11:06.905Z,11.81
2023-04-21T19:13:40.216Z,11.68
2023-04-21T19:16:15.000Z,11.58
2023-04-21T19:18:50.341Z,11.51
2023-04-21T19:21:25.255Z,11.40
2023-04-21T19:23:58.257Z,11.31
2023-04-21T19:26:31.029Z,11.24
2023-04-21T19:29:03.917Z,11.14
2023-04-21T19:31:37.368Z,11.06
2023-04-21T19:34:10.246Z,11.00
2023-04-21T19:36:44.022Z,10.96
2023-04-21T19:39:17.757Z,10.89
2023-04-21T19:41:50.309Z,10.79
2023-04-21T19:44:22.738Z,10.75
2023-04-21T19:46:57.941Z,10.70
2023-04-21T19:49:33.482Z,10.65
2023-04-21T19:52:06.557Z,10.57
2023-04-21T19:54:39.196Z,10.52
2023-04-21T19:57:12.222Z,10.48
2023-04-21T19:59:45.058Z,10.41
2023-04-21T20:02:17.583Z,10.34
2023-04-21T20:04:50.869Z,10.30
2023-04-21T20:07:24.308Z,10.24
2023-04-21T20:09:57.178Z,10.19
2023-04-21T20:12:30.586Z,10.13
2023-04-21T20:15:04.674Z,10.09
2023-04-21T20:17:37.577Z,10.03
2023-04-21T20:20:12.055Z,9.98
2023-04-21T20:22:44.662Z,9.91
2023-04-21T20:25:17.670Z,9.86
2023-04-21T20:27:50.021Z,9.82
2023-04-21T20:30:22.779Z,9.74
2023-04-21T20:32:55.632Z,9.67
2023-04-21T20:35:30.713Z,9.60
2023-04-21T20:38:04.155Z,9.55
2023-04-21T20:40:39.510Z,9.53
2023-04-21T20:43:12.747Z,9.47
2023-04-21T20:45:45.264Z,9.44
2023-04-21T20:48:18.937Z,9.40
2023-04-21T20:50:51.521Z,9.36
2023-04-21T20:53:24.702Z,9.27
2023-04-21T20:55:58.972Z,9.26
2023-04-21T20:58:29.745Z,9.21
2023-04-21T21:01:02.090Z,9.22
2023-04-21T21:03:37.339Z,9.16
2023-04-21T21:06:10.386Z,9.16
2023-04-21T21:08:44.106Z,9.15
2023-04-21T21:11:16.638Z,9.12
2023-04-21T21:13:51.364Z,9.09
2023-04-21T21:16:24.003Z,9.11
2023-04-21T21:18:56.729Z,9.05
2023-04-21T21:21:31.953Z,9.04
2023-04-21T21:24:05.158Z,9.02
2023-04-21T21:26:37.805Z,8.99
2023-04-21T21:29:11.537Z,8.99
2023-04-21T21:31:44.141Z,8.98
2023-04-21T21:34:16.601Z,8.96
2023-04-21T21:36:48.953Z,8.95
2023-04-21T21:39:21.692Z,8.95
2023-04-21T21:41:54.022Z,8.91
2023-04-21T21:44:26.600Z,8.88
2023-04-21T21:46:58.978Z,8.82
2023-04-21T21:49:31.422Z,8.82
2023-04-21T21:52:04.264Z,8.78
2023-04-21T21:54:37.246Z,8.75
2023-04-21T21:57:09.847Z,8.71
2023-04-21T21:59:43.293Z,8.63
2023-04-21T22:02:15.795Z,8.60
2023-04-21T22:04:48.420Z,8.53
2023-04-21T22:07:20.743Z,8.47
2023-04-21T22:09:53.404Z,8.41
2023-04-21T22:12:26.089Z,8.36
2023-04-21T22:14:58.318Z,8.29
2023-04-21T22:17:31.627Z,8.28
2023-04-21T22:20:08.789Z,8.26
2023-04-21T22:22:41.233Z,8.18
2023-04-21T22:25:13.849Z,8.13
2023-04-21T22:27:46.144Z,8.08
2023-04-21T22:30:18.765Z,8.05
2023-04-21T22:32:51.350Z,8.01
2023-04-21T22:35:23.720Z,8.00
2023-04-21T22:37:56.637Z,7.93
2023-04-21T22:40:31.954Z,7.91
2023-04-21T22:43:06.032Z,7.85
2023-04-21T22:45:38.719Z,7.81
2023-04-21T22:48:11.095Z,7.78
2023-04-21T22:50:45.113Z,7.73
2023-04-21T22:53:17.443Z,7.68
2023-04-21T22:55:49.829Z,7.63
2023-04-21T22:58:22.822Z,7.58
2023-04-21T23:00:55.338Z,7.53
2023-04-21T23:03:30.567Z,7.49
2023-04-21T23:06:03.037Z,7.46
2023-04-21T23:08:36.924Z,7.42
2023-04-21T23:11:09.192Z,7.33
2023-04-21T23:13:42.249Z,7.25
2023-04-21T23:16:14.900Z,7.21
2023-04-21T23:18:47.545Z,7.16
2023-04-21T23:21:20.139Z,7.11
2023-04-21T23:23:55.259Z,7.12
2023-04-21T23:26:27.603Z,7.08
2023-04-21T23:29:00.406Z,7.01
2023-04-21T23:31:32.831Z,6.95
2023-04-21T23:34:05.592Z,6.95
2023-04-21T23:36:38.392Z,6.91
2023-04-21T23:39:11.442Z,6.88
2023-04-21T23:41:44.377Z,6.90
2023-04-21T23:44:16.919Z,6.88
2023-04-21T23:46:49.410Z,6.88
2023-04-21T23:49:22.123Z,6.87
2023-04-21T23:51:54.850Z,6.84
2023-04-21T23:54:27.631Z,6.83
2023-04-21T23:57:07.395Z,6.83
2023-04-21T23:59:39.905Z,6.82
